Terminal Aerodrome Forecast
Issued by NWS

Home | Current Version | Previous Version | Text Only | Print | Product List | Glossary On
Versions: 1 2 3 4 5 6 7 8 9 10 11 12 13 14 15 16
000
FTUS43 KMPX 212300 RRA
TAFRNH
TAF
KRNH 212341Z 2200/2224 15009KT 3SM -DZ BR OVC005
     FM220400 14011KT 1 1/2SM -DZ BR OVC003
     FM221700 12012KT 1 1/2SM -RA OVC005
     FM222100 11011KT 3SM -RASN OVC007=

USA.gov is the U.S. government's official web portal to all federal, state and local government web resources and services.